Time;durP1;ratioP1;P1;durP2;ratioP2;P2;SDS_P1;SDS_P2;PMS_P1;PMS_P2;Temp;Humidity;BMP_temperature;BMP_pressure;BME280_temperature;BME280_humidity;BME280_pressure;Samples;Min_cycle;Max_cycle;Signal;HPM_P1;HPM_P2
2022/03/11 00:02:15;;;;;;;21.40;12.45;;;6.50;99.90;;;;;;5032916;28;20026;-73
2022/03/11 00:04:40;;;;;;;22.80;12.60;;;6.40;99.90;;;;;;5034224;28;20045;-73
2022/03/11 00:07:07;;;;;;;20.33;12.13;;;6.40;99.90;;;;;;5034138;28;20484;-74
2022/03/11 00:09:33;;;;;;;20.60;12.38;;;6.50;99.90;;;;;;5033807;28;20514;-74
2022/03/11 00:11:59;;;;;;;22.17;11.65;;;6.30;99.90;;;;;;5034060;28;20025;-73
2022/03/11 00:14:24;;;;;;;21.50;12.38;;;6.30;99.90;;;;;;5032607;28;20044;-73
2022/03/11 00:16:49;;;;;;;21.65;12.02;;;6.20;99.90;;;;;;5032729;28;20025;-74
2022/03/11 00:19:15;;;;;;;27.02;13.02;;;6.10;99.90;;;;;;5033895;28;20025;-73
2022/03/11 00:21:40;;;;;;;24.70;12.85;;;6.00;99.90;;;;;;5034003;28;20036;-73
2022/03/11 00:24:06;;;;;;;26.90;12.88;;;6.10;99.90;;;;;;5032542;28;20021;-73
2022/03/11 00:26:32;;;;;;;25.02;13.00;;;6.00;99.90;;;;;;5032623;28;20068;-74
2022/03/11 00:28:58;;;;;;;21.95;12.85;;;5.90;99.90;;;;;;5016099;28;20149;-73
2022/03/11 00:31:24;;;;;;;21.52;12.88;;;5.80;99.90;;;;;;5033694;28;20033;-73
2022/03/11 00:33:50;;;;;;;22.40;12.73;;;5.80;99.90;;;;;;5033629;28;20494;-73
2022/03/11 00:36:16;;;;;;;23.55;12.98;;;5.80;99.90;;;;;;5033584;28;20025;-73
2022/03/11 00:38:41;;;;;;;22.02;13.07;;;5.80;99.90;;;;;;5033675;28;20428;-73
2022/03/11 00:41:07;;;;;;;23.55;12.82;;;5.70;99.90;;;;;;5032304;28;20022;-74
2022/03/11 00:43:33;;;;;;;26.83;13.18;;;5.70;99.90;;;;;;5033551;28;20100;-74
2022/03/11 00:45:59;;;;;;;24.95;13.23;;;5.70;99.90;;;;;;5032351;28;20057;-73
2022/03/11 00:48:24;;;;;;;26.30;12.35;;;5.60;99.90;;;;;;5033413;28;20028;-73
2022/03/11 00:50:50;;;;;;;24.27;13.00;;;5.60;99.90;;;;;;5032111;28;20033;-74
2022/03/11 00:53:16;;;;;;;25.02;12.95;;;5.60;99.90;;;;;;5032249;28;20021;-74
2022/03/11 00:55:41;;;;;;;21.88;13.18;;;5.60;99.90;;;;;;5033406;28;20022;-74
2022/03/11 00:58:07;;;;;;;25.02;12.55;;;5.50;99.90;;;;;;5032088;28;20500;-74
2022/03/11 01:00:33;;;;;;;21.33;12.25;;;5.40;99.90;;;;;;5033308;28;20565;-74
2022/03/11 01:02:59;;;;;;;22.05;13.25;;;5.40;99.90;;;;;;5033296;28;20056;-74
2022/03/11 01:05:25;;;;;;;22.23;12.80;;;5.50;99.90;;;;;;5031963;28;20373;-74
2022/03/11 01:07:52;;;;;;;23.20;13.07;;;5.40;99.90;;;;;;5032098;28;20032;-73
2022/03/11 01:10:18;;;;;;;23.63;12.68;;;5.40;99.90;;;;;;5032945;28;20120;-73
2022/03/11 01:12:44;;;;;;;26.30;13.18;;;5.30;99.90;;;;;;5033139;28;20463;-73
2022/03/11 01:15:10;;;;;;;24.83;12.95;;;5.20;99.90;;;;;;5033212;28;20053;-74
2022/03/11 01:17:36;;;;;;;22.90;13.52;;;5.10;99.90;;;;;;5033073;28;20108;-73
2022/03/11 01:20:03;;;;;;;22.95;13.48;;;5.10;99.90;;;;;;5031916;28;20033;-73
2022/03/11 01:22:29;;;;;;;23.73;12.25;;;5.20;99.90;;;;;;5015504;28;20033;-73
2022/03/11 01:24:55;;;;;;;23.83;13.20;;;5.30;99.90;;;;;;5033096;28;20021;-73
2022/03/11 01:27:20;;;;;;;23.38;12.93;;;5.20;99.90;;;;;;5031747;28;20030;-73
2022/03/11 01:29:46;;;;;;;25.27;13.82;;;5.30;99.90;;;;;;5031748;28;20029;-73
2022/03/11 01:32:11;;;;;;;22.48;13.05;;;5.30;99.90;;;;;;5032996;28;20025;-73
2022/03/11 01:34:37;;;;;;;23.60;13.27;;;5.20;99.90;;;;;;5032937;28;20570;-73
2022/03/11 01:37:03;;;;;;;22.33;12.75;;;5.10;99.90;;;;;;5032924;28;20387;-73
2022/03/11 01:39:29;;;;;;;23.45;13.57;;;5.20;99.90;;;;;;5032962;28;20096;-74
2022/03/11 01:41:54;;;;;;;22.02;13.13;;;5.10;99.90;;;;;;5032912;28;20440;-73
2022/03/11 01:44:20;;;;;;;26.13;14.18;;;5.20;99.90;;;;;;5031886;28;20104;-73
2022/03/11 01:46:45;;;;;;;26.20;12.68;;;5.20;99.90;;;;;;5031653;28;20025;-73
2022/03/11 01:49:11;;;;;;;27.15;15.00;;;5.20;99.90;;;;;;5031569;28;20029;-73
2022/03/11 01:51:41;;;;;;;24.27;13.32;;;5.20;99.90;;;;;;5032755;28;20518;-74
2022/03/11 01:54:07;;;;;;;28.88;14.70;;;5.10;99.90;;;;;;5032781;28;20018;-73
2022/03/11 01:56:33;;;;;;;25.85;13.95;;;5.00;99.90;;;;;;5031533;28;20025;-74
2022/03/11 01:58:59;;;;;;;25.73;14.10;;;5.00;99.90;;;;;;5032781;28;20072;-73
2022/03/11 02:01:25;;;;;;;25.88;14.00;;;4.90;99.90;;;;;;5015031;28;20029;-73
2022/03/11 02:03:51;;;;;;;27.48;14.55;;;4.80;99.90;;;;;;5032721;28;20034;-73
2022/03/11 02:06:18;;;;;;;22.52;13.95;;;4.60;99.90;;;;;;5031417;28;20099;-73
2022/03/11 02:08:43;;;;;;;36.35;14.98;;;4.50;99.90;;;;;;5015134;28;20067;-74
2022/03/11 02:11:11;;;;;;;25.73;14.75;;;4.40;99.90;;;;;;5032348;28;20085;-74
2022/03/11 02:13:54;;;;;;;26.25;14.45;;;4.30;99.90;;;;;;5032620;28;20021;-74
2022/03/11 02:16:22;;;;;;;27.92;14.30;;;4.30;99.90;;;;;;5032567;28;20109;-73
2022/03/11 02:18:49;;;;;;;26.88;14.63;;;4.30;99.90;;;;;;5035279;28;20033;-73
2022/03/11 02:21:15;;;;;;;28.13;15.30;;;4.30;99.90;;;;;;5034883;28;20124;-73
2022/03/11 02:23:45;;;;;;;28.50;13.88;;;4.30;99.90;;;;;;5036230;28;20428;-73
2022/03/11 02:26:12;;;;;;;26.65;14.07;;;4.20;99.90;;;;;;5034962;28;20026;-73
2022/03/11 02:28:38;;;;;;;31.75;15.35;;;4.10;99.90;;;;;;5034845;28;20105;-73
2022/03/11 02:31:03;;;;;;;28.60;15.13;;;4.30;99.90;;;;;;5034807;28;20144;-73
2022/03/11 02:33:29;;;;;;;25.88;15.05;;;4.30;99.90;;;;;;5035933;28;20029;-73
2022/03/11 02:35:55;;;;;;;26.45;14.35;;;4.20;99.90;;;;;;5018155;28;20149;-73
2022/03/11 02:38:20;;;;;;;25.80;15.50;;;4.20;99.90;;;;;;5035828;28;20056;-73
2022/03/11 02:40:46;;;;;;;28.50;15.23;;;4.20;99.90;;;;;;5035729;28;20471;-72
2022/03/11 02:43:12;;;;;;;26.98;14.38;;;4.20;99.90;;;;;;5018076;28;20041;-73
2022/03/11 02:45:38;;;;;;;26.45;14.90;;;4.30;99.90;;;;;;5035679;28;20108;-73
2022/03/11 02:48:04;;;;;;;26.42;14.95;;;4.30;99.90;;;;;;5034475;28;20104;-73
2022/03/11 02:50:30;;;;;;;26.98;15.23;;;4.30;99.90;;;;;;5035577;28;20038;-73
2022/03/11 02:52:55;;;;;;;26.02;14.95;;;4.30;99.90;;;;;;5035552;28;20036;-74
2022/03/11 02:55:21;;;;;;;27.58;15.52;;;4.30;99.90;;;;;;5034381;28;20388;-73
2022/03/11 02:57:46;;;;;;;26.48;16.15;;;4.40;99.90;;;;;;5035496;28;20195;-73
2022/03/11 03:00:12;;;;;;;29.25;14.88;;;4.40;99.90;;;;;;5035426;28;20034;-73
2022/03/11 03:02:38;;;;;;;33.67;16.00;;;4.30;99.90;;;;;;5034203;28;20040;-73
2022/03/11 03:05:04;;;;;;;26.02;14.82;;;4.30;99.90;;;;;;5034114;28;20036;-73
2022/03/11 03:07:30;;;;;;;25.83;15.00;;;4.30;99.90;;;;;;5035300;28;20053;-73
2022/03/11 03:09:56;;;;;;;24.00;14.57;;;4.20;99.90;;;;;;5033867;28;20065;-73
2022/03/11 03:12:22;;;;;;;25.35;14.18;;;4.10;99.90;;;;;;5034086;28;20422;-73
2022/03/11 03:14:47;;;;;;;29.80;15.57;;;4.00;99.90;;;;;;5035166;28;20024;-73
2022/03/11 03:17:13;;;;;;;29.73;15.77;;;4.00;99.90;;;;;;5035204;28;20022;-73
2022/03/11 03:19:38;;;;;;;30.60;15.75;;;3.90;99.90;;;;;;5033776;28;20395;-73
2022/03/11 03:22:04;;;;;;;34.50;16.45;;;3.90;99.90;;;;;;5035018;28;20021;-73
2022/03/11 03:24:30;;;;;;;31.83;16.55;;;3.90;99.90;;;;;;5034976;28;20048;-73
2022/03/11 03:26:56;;;;;;;28.90;14.90;;;3.90;99.90;;;;;;5033661;28;20025;-73
2022/03/11 03:29:22;;;;;;;29.25;16.85;;;3.90;99.90;;;;;;5033597;28;20472;-73
2022/03/11 03:31:47;;;;;;;26.55;15.68;;;4.00;99.90;;;;;;5016989;28;20029;-73
2022/03/11 03:34:13;;;;;;;30.92;16.73;;;4.00;99.90;;;;;;5035180;28;20024;-73
2022/03/11 03:36:39;;;;;;;35.50;16.25;;;4.00;99.90;;;;;;5034735;28;20392;-73
2022/03/11 03:39:05;;;;;;;31.02;15.98;;;4.00;99.90;;;;;;5034683;28;20064;-73
2022/03/11 03:41:30;;;;;;;33.08;18.10;;;3.90;99.90;;;;;;5034690;28;20112;-73
2022/03/11 03:43:56;;;;;;;31.50;17.35;;;3.80;99.90;;;;;;5033685;28;20071;-73
2022/03/11 03:46:21;;;;;;;31.65;17.13;;;3.90;99.90;;;;;;5034579;28;20096;-73
2022/03/11 03:48:47;;;;;;;33.08;16.67;;;3.90;99.90;;;;;;5033354;28;20087;-73
2022/03/11 03:51:12;;;;;;;31.08;15.98;;;3.90;99.90;;;;;;5034491;28;20025;-73
2022/03/11 03:53:38;;;;;;;33.08;16.48;;;3.90;99.90;;;;;;5033074;28;20022;-73
2022/03/11 03:56:04;;;;;;;30.42;16.42;;;3.80;99.90;;;;;;5033228;28;20025;-74
2022/03/11 03:58:29;;;;;;;34.25;17.13;;;3.70;99.90;;;;;;5034400;28;20388;-74
2022/03/11 04:00:55;;;;;;;29.70;16.98;;;3.80;99.90;;;;;;5034342;28;20032;-73
2022/03/11 04:03:21;;;;;;;32.55;16.45;;;3.80;99.90;;;;;;5034350;28;20152;-73
2022/03/11 04:05:46;;;;;;;30.77;15.73;;;3.70;99.90;;;;;;5032944;28;20028;-73
2022/03/11 04:08:12;;;;;;;28.95;16.05;;;3.70;99.90;;;;;;5033037;28;20480;-73
2022/03/11 04:10:38;;;;;;;31.30;16.30;;;3.60;99.90;;;;;;5032517;28;20136;-74
2022/03/11 04:13:04;;;;;;;28.30;16.25;;;3.60;99.90;;;;;;5034041;28;20029;-74
2022/03/11 04:15:30;;;;;;;33.78;16.80;;;3.60;99.90;;;;;;5034038;28;20022;-73
2022/03/11 04:17:55;;;;;;;31.02;16.80;;;3.60;99.90;;;;;;5033991;28;20029;-73
2022/03/11 04:20:21;;;;;;;29.23;15.63;;;3.60;99.90;;;;;;5033967;28;20029;-73
2022/03/11 04:22:47;;;;;;;29.40;15.85;;;3.60;99.90;;;;;;5032764;28;20021;-73
2022/03/11 04:25:14;;;;;;;31.40;16.70;;;3.50;99.90;;;;;;5033929;28;20368;-73
2022/03/11 04:27:40;;;;;;;32.58;16.85;;;3.60;99.90;;;;;;5032570;28;20026;-73
2022/03/11 04:30:06;;;;;;;29.60;16.27;;;3.50;99.90;;;;;;5032482;28;20052;-73
2022/03/11 04:32:32;;;;;;;30.88;16.75;;;3.40;99.90;;;;;;5032526;28;20060;-73
2022/03/11 04:34:58;;;;;;;33.70;17.05;;;3.40;99.90;;;;;;5032530;28;20053;-73
2022/03/11 04:37:23;;;;;;;33.70;16.40;;;3.40;99.90;;;;;;5032378;28;20021;-73
2022/03/11 04:39:49;;;;;;;30.17;15.82;;;3.30;99.90;;;;;;5033443;28;20476;-73
2022/03/11 04:42:14;;;;;;;33.42;16.58;;;3.30;99.90;;;;;;5033420;28;20060;-73
2022/03/11 04:44:40;;;;;;;30.42;17.08;;;3.30;99.90;;;;;;5015800;28;20468;-73
2022/03/11 04:47:05;;;;;;;29.92;16.00;;;3.20;99.90;;;;;;5032198;28;20112;-73
2022/03/11 04:49:36;;;;;;;35.20;17.17;;;3.20;99.90;;;;;;5033448;28;20035;-73
2022/03/11 04:52:02;;;;;;;29.35;16.70;;;3.10;99.90;;;;;;5032166;28;20108;-73
2022/03/11 04:54:27;;;;;;;36.70;19.17;;;3.20;99.90;;;;;;5033343;28;20111;-73
2022/03/11 04:56:53;;;;;;;42.85;20.67;;;3.20;99.90;;;;;;5033416;28;20436;-73
2022/03/11 04:59:18;;;;;;;40.10;20.42;;;3.30;99.90;;;;;;5033403;28;20025;-73
2022/03/11 05:01:43;;;;;;;40.35;19.98;;;3.20;99.90;;;;;;5032209;28;20085;-73
2022/03/11 05:04:09;;;;;;;42.10;20.02;;;3.20;99.90;;;;;;5033289;28;20025;-73
2022/03/11 05:06:34;;;;;;;36.25;19.83;;;3.10;99.90;;;;;;5031939;28;20028;-73
2022/03/11 05:09:00;;;;;;;40.22;20.77;;;3.10;99.90;;;;;;5033240;28;20037;-73
2022/03/11 05:11:25;;;;;;;39.78;20.42;;;3.10;99.90;;;;;;5031742;28;20117;-73
2022/03/11 05:13:51;;;;;;;36.53;19.75;;;3.10;99.90;;;;;;5031829;28;20048;-73
2022/03/11 05:16:16;;;;;;;39.72;19.85;;;3.10;99.90;;;;;;5015363;28;20022;-73
2022/03/11 05:18:42;;;;;;;35.75;18.95;;;3.10;99.90;;;;;;5033139;28;20455;-73
2022/03/11 05:21:07;;;;;;;39.97;20.17;;;3.20;99.90;;;;;;5033084;28;20041;-73
2022/03/11 05:23:33;;;;;;;35.53;19.10;;;3.10;99.90;;;;;;5033054;28;20061;-73
2022/03/11 05:25:58;;;;;;;38.30;19.35;;;3.10;99.90;;;;;;5031800;28;20041;-73
2022/03/11 05:28:24;;;;;;;36.72;19.77;;;3.10;99.90;;;;;;5033073;28;20033;-73
2022/03/11 05:30:49;;;;;;;35.80;19.92;;;3.10;99.90;;;;;;5032994;28;20026;-73
2022/03/11 05:33:15;;;;;;;37.65;18.80;;;3.10;99.90;;;;;;5031792;28;20017;-73
2022/03/11 05:35:41;;;;;;;37.92;19.70;;;;;;;;;;5031797;28;20468;-72
2022/03/11 05:38:07;;;;;;;39.80;18.85;;;;;;;;;;5031650;28;20024;-72
2022/03/11 05:40:34;;;;;;;44.03;20.73;;;;;;;;;;5031618;28;20120;-73
2022/03/11 05:43:00;;;;;;;35.83;18.75;;;;;;;;;;5032899;28;20053;-72
2022/03/11 05:45:26;;;;;;;36.55;18.42;;;;;;;;;;5031731;28;20053;-72
2022/03/11 05:47:52;;;;;;;42.15;19.58;;;;;;;;;;5032864;28;20028;-72
2022/03/11 05:50:18;;;;;;;36.10;19.83;;;;;;;;;;5032728;28;20495;-72
2022/03/11 05:52:45;;;;;;;41.88;20.67;;;;;;;;;;5032743;28;20025;-73
2022/03/11 05:55:11;;;;;;;38.63;19.70;;;;;;;;;;5035414;28;20028;-73
2022/03/11 05:57:37;;;;;;;37.55;20.33;;;;;;;;;;5018885;28;20014;-73
2022/03/11 06:00:04;;;;;;;34.63;18.80;;;;;;;;;;5036545;28;20479;-72
2022/03/11 06:02:30;;;;;;;46.58;20.02;;;;;;;;;;5035267;28;20425;-72
2022/03/11 06:04:56;;;;;;;40.38;20.77;;;;;;;;;;5036440;28;20163;-72
2022/03/11 06:07:21;;;;;;;40.38;21.00;;;;;;;;;;5036412;28;20079;-72
2022/03/11 06:09:47;;;;;;;44.75;21.73;;;;;;;;;;5036179;28;20085;-72
2022/03/11 06:12:14;;;;;;;45.70;21.40;;;;;;;;;;5035107;28;20024;-72
2022/03/11 06:14:41;;;;;;;39.50;20.73;;;;;;;;;;5035153;28;20026;-72
2022/03/11 06:17:07;;;;;;;42.03;21.30;;;;;;;;;;5035074;28;20567;-72
2022/03/11 06:19:34;;;;;;;41.65;21.15;;;;;;;;;;5018516;28;20120;-72
2022/03/11 06:22:00;;;;;;;37.88;21.38;;;;;;;;;;5035009;28;20479;-72
2022/03/11 06:24:26;;;;;;;39.55;19.90;;;;;;;;;;5036091;28;20032;-72
2022/03/11 06:26:52;;;;;;;36.75;20.15;;;;;;;;;;5036064;28;20029;-72
2022/03/11 06:29:18;;;;;;;42.50;20.73;;;;;;;;;;5036021;28;20543;-72
2022/03/11 06:31:44;;;;;;;36.95;19.92;;;;;;;;;;5035927;28;20395;-72
2022/03/11 06:34:10;;;;;;;37.90;20.98;;;;;;;;;;5035919;28;20105;-72
2022/03/11 06:36:37;;;;;;;44.53;20.90;;;;;;;;;;5035857;28;20518;-72
2022/03/11 06:39:03;;;;;;;42.47;20.95;;;5.90;99.90;;;;;;5035754;28;20533;-74
2022/03/11 06:41:28;;;;;;;51.85;25.17;;;6.40;99.90;;;;;;5035632;28;20021;-74
2022/03/11 06:43:54;;;;;;;41.50;21.35;;;7.10;99.90;;;;;;5035725;28;20029;-74
2022/03/11 06:46:19;;;;;;;35.72;20.00;;;8.10;99.90;;;;;;5034371;28;20026;-73
2022/03/11 06:48:45;;;;;;;39.08;20.27;;;9.00;99.90;;;;;;5034581;28;20029;-74
2022/03/11 06:51:10;;;;;;;39.22;20.40;;;9.60;99.90;;;;;;5035518;28;20022;-74
2022/03/11 06:53:37;;;;;;;37.40;21.05;;;10.20;99.80;;;;;;5035519;28;20036;-74
2022/03/11 06:56:04;;;;;;;37.50;21.08;;;10.20;99.30;;;;;;5034374;28;20076;-74
2022/03/11 06:58:30;;;;;;;38.50;20.08;;;10.50;97.60;;;;;;5035396;28;20025;-74
2022/03/11 07:00:56;;;;;;;35.13;20.25;;;10.60;95.40;;;;;;5035417;28;20032;-74
2022/03/11 07:03:21;;;;;;;33.65;20.13;;;10.80;95.00;;;;;;5033845;28;20017;-74
2022/03/11 07:05:47;;;;;;;35.53;19.88;;;10.80;94.40;;;;;;5035259;28;20025;-74
2022/03/11 07:08:14;;;;;;;39.63;22.05;;;11.10;93.80;;;;;;5035174;28;20033;-73
2022/03/11 07:10:39;;;;;;;34.75;20.38;;;11.50;91.90;;;;;;5033674;28;20046;-74
2022/03/11 07:13:05;;;;;;;34.28;20.48;;;11.70;90.70;;;;;;5033970;28;20021;-74
2022/03/11 07:15:30;;;;;;;36.25;20.67;;;11.70;90.30;;;;;;5035092;28;20407;-74
2022/03/11 07:17:56;;;;;;;33.58;20.20;;;12.70;85.80;;;;;;5017308;28;20434;-74
2022/03/11 07:20:21;;;;;;;33.53;20.42;;;11.90;83.40;;;;;;5034941;28;20025;-73
2022/03/11 07:22:48;;;;;;;34.67;21.58;;;11.00;84.80;;;;;;5033680;28;20051;-74
2022/03/11 07:25:15;;;;;;;36.75;20.88;;;10.90;84.90;;;;;;5034966;28;20503;-74
2022/03/11 07:27:40;;;;;;;39.13;21.80;;;11.30;85.60;;;;;;5034931;28;20123;-73
2022/03/11 07:30:06;;;;;;;35.00;22.23;;;11.70;81.70;;;;;;5034707;28;20491;-74
2022/03/11 07:32:32;;;;;;;34.40;21.08;;;11.90;77.80;;;;;;5033678;28;20013;-74
2022/03/11 07:34:57;;;;;;;34.92;20.58;;;11.70;79.20;;;;;;5033472;28;20385;-73
2022/03/11 07:37:23;;;;;;;34.10;20.50;;;12.10;75.90;;;;;;5034763;28;20498;-74
2022/03/11 07:39:49;;;;;;;34.95;21.38;;;12.50;73.20;;;;;;5034724;28;20022;-74
2022/03/11 07:42:15;;;;;;;34.70;21.02;;;12.00;75.00;;;;;;5033936;28;20025;-73
2022/03/11 07:44:41;;;;;;;35.53;21.38;;;12.10;73.70;;;;;;5034229;28;20385;-73
2022/03/11 07:47:06;;;;;;;40.22;20.83;;;12.70;72.50;;;;;;5043176;28;20017;-74
2022/03/11 07:49:32;;;;;;;35.70;20.25;;;12.50;69.50;;;;;;5048770;28;20079;-73
2022/03/11 07:51:58;;;;;;;35.25;20.70;;;12.60;71.70;;;;;;5051351;28;20049;-72
2022/03/11 07:54:23;;;;;;;35.30;22.08;;;13.30;69.10;;;;;;5036414;28;20071;-74
2022/03/11 07:56:49;;;;;;;35.55;21.52;;;12.60;68.40;;;;;;5050617;28;20083;-74
2022/03/11 07:59:14;;;;;;;34.55;21.30;;;12.40;71.30;;;;;;5042951;28;20057;-74
2022/03/11 08:01:40;;;;;;;38.28;22.17;;;12.80;68.20;;;;;;5032999;28;20149;-74
2022/03/11 08:04:06;;;;;;;36.25;22.27;;;12.80;68.80;;;;;;5026375;28;20060;-73
2022/03/11 08:06:31;;;;;;;35.63;22.55;;;12.60;69.30;;;;;;5027810;28;20466;-73
2022/03/11 08:08:57;;;;;;;43.22;23.17;;;12.30;69.30;;;;;;5035563;28;20030;-74
2022/03/11 08:11:23;;;;;;;36.08;22.50;;;11.60;71.30;;;;;;5032569;28;20045;-73
2022/03/11 08:13:48;;;;;;;34.30;21.98;;;12.20;71.60;;;;;;5051229;28;20074;-74
2022/03/11 08:16:15;;;;;;;35.92;22.10;;;13.30;69.60;;;;;;5053162;28;20522;-74
2022/03/11 08:18:43;;;;;;;38.15;22.80;;;13.60;66.10;;;;;;5053801;28;20021;-74
2022/03/11 08:21:10;;;;;;;34.53;22.17;;;14.10;64.20;;;;;;5048622;28;20025;-74
2022/03/11 08:23:36;;;;;;;38.75;22.35;;;14.40;62.50;;;;;;5050093;28;20029;-73
2022/03/11 08:26:01;;;;;;;31.95;20.75;;;14.70;61.00;;;;;;5033764;28;20029;-74
2022/03/11 08:28:27;;;;;;;36.78;22.80;;;14.60;61.00;;;;;;5038120;28;20055;-73
2022/03/11 08:30:54;;;;;;;34.08;21.65;;;14.50;60.60;;;;;;5043514;28;20021;-73
2022/03/11 08:33:22;;;;;;;35.75;22.38;;;14.50;58.80;;;;;;5032440;28;20022;-74
2022/03/11 08:35:49;;;;;;;37.80;22.10;;;14.50;59.20;;;;;;5033512;28;20026;-73
2022/03/11 08:38:14;;;;;;;34.00;23.15;;;14.90;58.30;;;;;;5053407;28;20060;-74
2022/03/11 08:40:41;;;;;;;31.15;20.80;;;13.90;57.10;;;;;;5037515;28;20069;-74
2022/03/11 08:43:06;;;;;;;30.48;21.55;;;13.60;57.70;;;;;;5060259;28;20022;-74
2022/03/11 08:45:32;;;;;;;35.45;20.95;;;13.60;57.10;;;;;;5034403;28;20026;-74
2022/03/11 08:47:58;;;;;;;29.65;19.48;;;13.40;56.60;;;;;;5034365;28;20029;-74
2022/03/11 08:50:24;;;;;;;30.98;19.50;;;12.80;58.30;;;;;;5032996;28;20037;-74
2022/03/11 08:52:50;;;;;;;31.38;20.42;;;13.20;57.30;;;;;;5046881;28;20506;-74
2022/03/11 08:55:16;;;;;;;34.78;21.05;;;12.90;57.60;;;;;;5048861;28;20064;-74
2022/03/11 08:57:48;;;;;;;30.83;20.73;;;13.00;58.20;;;;;;5042118;28;20021;-74
2022/03/11 09:00:15;;;;;;;30.27;19.73;;;12.90;57.90;;;;;;5033116;28;20487;-74
2022/03/11 09:02:41;;;;;;;34.20;19.83;;;13.60;58.00;;;;;;5015591;28;20029;-74
2022/03/11 09:05:07;;;;;;;34.10;20.70;;;14.10;55.20;;;;;;5031796;28;20034;-74
2022/03/11 09:07:33;;;;;;;34.25;19.65;;;14.50;55.00;;;;;;5031912;28;20021;-75
2022/03/11 09:09:59;;;;;;;30.20;19.45;;;14.40;54.00;;;;;;5032837;28;20518;-75
2022/03/11 09:12:25;;;;;;;31.90;18.95;;;14.60;54.30;;;;;;5040726;28;20021;-74
2022/03/11 09:14:51;;;;;;;30.52;20.02;;;14.70;53.50;;;;;;5044972;28;20039;-74
2022/03/11 09:17:16;;;;;;;29.95;20.63;;;14.20;52.70;;;;;;5051520;28;20021;-74
2022/03/11 09:19:43;;;;;;;28.25;18.58;;;13.90;55.00;;;;;;5051013;28;20368;-74
2022/03/11 09:22:10;;;;;;;32.05;21.17;;;13.70;54.80;;;;;;5053078;28;20043;-74
2022/03/11 09:24:36;;;;;;;30.33;18.58;;;13.20;55.20;;;;;;5048016;28;20025;-74
2022/03/11 09:27:01;;;;;;;28.35;18.27;;;13.30;55.90;;;;;;5048269;28;20124;-74
2022/03/11 09:29:30;;;;;;;28.80;19.50;;;13.90;56.00;;;;;;5035675;28;20036;-74
2022/03/11 09:31:56;;;;;;;29.80;20.17;;;14.00;54.90;;;;;;5037822;28;20018;-74
2022/03/11 09:34:23;;;;;;;29.13;18.08;;;14.70;54.10;;;;;;5052300;28;20022;-74
2022/03/11 09:36:49;;;;;;;28.90;17.85;;;14.60;52.50;;;;;;5052776;28;20025;-74
2022/03/11 09:39:14;;;;;;;30.02;18.95;;;14.00;53.80;;;;;;5052350;28;20025;-75
2022/03/11 09:41:40;;;;;;;25.10;17.75;;;14.40;53.50;;;;;;5044724;28;20381;-74
2022/03/11 09:44:06;;;;;;;25.38;18.33;;;14.20;53.80;;;;;;5037099;28;20063;-74
2022/03/11 09:46:33;;;;;;;27.88;18.55;;;14.20;54.00;;;;;;5035992;28;20021;-74
2022/03/11 09:49:01;;;;;;;28.88;19.42;;;14.20;53.90;;;;;;5052704;28;20052;-74
2022/03/11 09:51:27;;;;;;;29.52;17.58;;;14.50;54.30;;;;;;5054478;28;20029;-74
2022/03/11 09:53:53;;;;;;;27.40;17.95;;;15.50;52.80;;;;;;5054787;28;20066;-74
2022/03/11 09:56:20;;;;;;;26.45;17.60;;;15.20;51.60;;;;;;5038220;28;20047;-74
2022/03/11 09:58:46;;;;;;;26.15;17.15;;;15.20;52.50;;;;;;5056633;28;20094;-74
2022/03/11 10:01:11;;;;;;;26.45;16.90;;;14.90;50.40;;;;;;5044929;28;20026;-74
2022/03/11 10:03:37;;;;;;;26.10;16.42;;;14.30;52.10;;;;;;5036251;28;20029;-74
2022/03/11 10:06:02;;;;;;;26.48;16.08;;;14.40;52.60;;;;;;5050512;28;20372;-74
2022/03/11 10:08:38;;;;;;;27.60;15.93;;;15.40;52.90;;;;;;5055829;28;20064;-74
2022/03/11 10:11:26;;;;;;;25.17;16.52;;;15.70;50.50;;;;;;5055922;28;20556;-75
2022/03/11 10:13:52;;;;;;;22.60;16.27;;;15.50;49.60;;;;;;5052280;28;20055;-73
2022/03/11 10:16:21;;;;;;;25.25;16.52;;;14.80;50.10;;;;;;5034709;28;20021;-74
2022/03/11 10:19:00;;;;;;;26.75;16.20;;;14.90;50.60;;;;;;5036881;28;20025;-74
2022/03/11 10:24:13;;;;;;;23.23;15.70;;;14.90;51.70;;;;;;5062451;28;20783;-73
2022/03/11 10:26:41;;;;;;;22.35;16.00;;;14.70;49.30;;;;;;5050436;28;20064;-74
2022/03/11 10:29:10;;;;;;;22.75;14.73;;;14.20;51.80;;;;;;5050419;28;20475;-74
2022/03/11 10:31:40;;;;;;;24.40;15.40;;;14.00;51.60;;;;;;5049934;28;20025;-74
2022/03/11 10:34:26;;;;;;;23.30;15.05;;;14.20;52.30;;;;;;5050221;28;20395;-74
2022/03/11 10:36:55;;;;;;;23.38;14.48;;;14.40;50.30;;;;;;5031658;28;20221;-74
2022/03/11 10:39:27;;;;;;;25.00;14.77;;;13.90;51.00;;;;;;5048949;28;20380;-74
2022/03/11 10:41:54;;;;;;;23.70;13.65;;;15.00;51.50;;;;;;5049489;28;20049;-74
2022/03/11 10:44:22;;;;;;;20.63;13.75;;;15.70;49.20;;;;;;5065276;28;20033;-74
2022/03/11 10:46:48;;;;;;;21.58;13.98;;;15.50;47.20;;;;;;5048655;28;20013;-74
2022/03/11 10:49:31;;;;;;;21.15;14.32;;;15.40;48.30;;;;;;5048665;28;20025;-74
2022/03/11 10:51:58;;;;;;;20.02;13.73;;;14.90;48.60;;;;;;5048285;28;20033;-74
2022/03/11 10:54:25;;;;;;;20.75;13.57;;;14.60;49.10;;;;;;5048519;28;20060;-74
2022/03/11 10:56:51;;;;;;;22.77;14.10;;;15.30;49.60;;;;;;5049995;28;20053;-74
2022/03/11 11:01:57;;;;;;;22.45;14.48;;;15.30;48.70;;;;;;5102043;27;20362;-74
2022/03/11 11:04:24;;;;;;;20.85;14.40;;;14.20;49.40;;;;;;5127385;27;20023;-74
2022/03/11 11:06:50;;;;;;;20.73;13.82;;;13.90;49.20;;;;;;5107861;28;20023;-74
2022/03/11 11:09:17;;;;;;;25.83;14.38;;;14.20;49.80;;;;;;5110243;28;20478;-74
2022/03/11 11:11:44;;;;;;;18.00;13.13;;;14.90;51.10;;;;;;5112506;28;20035;-75
2022/03/11 11:14:11;;;;;;;20.77;13.95;;;15.50;49.10;;;;;;5110396;28;20023;-74
2022/03/11 11:16:40;;;;;;;31.27;15.85;;;15.90;48.40;;;;;;5109478;28;20038;-75
2022/03/11 11:19:10;;;;;;;21.05;14.80;;;15.60;48.00;;;;;;5109625;28;20019;-75
2022/03/11 11:21:39;;;;;;;20.02;14.23;;;15.20;47.60;;;;;;5091406;28;20020;-74
2022/03/11 11:24:09;;;;;;;20.77;13.93;;;14.90;48.30;;;;;;5088115;28;20502;-74
2022/03/11 11:26:35;;;;;;;19.42;13.20;;;15.10;48.90;;;;;;5089391;28;20438;-74
2022/03/11 11:29:03;;;;;;;24.67;13.65;;;14.80;48.50;;;;;;5106342;28;20021;-74
2022/03/11 11:31:30;;;;;;;21.20;14.27;;;14.90;48.90;;;;;;5070213;28;20394;-74
2022/03/11 11:33:55;;;;;;;20.88;13.80;;;14.80;48.90;;;;;;5102328;28;20181;-74
2022/03/11 11:36:38;;;;;;;20.80;13.60;;;14.20;49.40;;;;;;5107619;28;20115;-74
2022/03/11 11:39:06;;;;;;;22.02;14.20;;;14.40;50.10;;;;;;5108657;28;20065;-74
2022/03/11 11:41:33;;;;;;;20.80;14.00;;;14.70;48.70;;;;;;5097963;28;20024;-75
2022/03/11 11:44:04;;;;;;;19.00;13.15;;;14.60;48.70;;;;;;5108156;28;20110;-73
2022/03/11 11:46:32;;;;;;;23.70;14.60;;;13.90;49.00;;;;;;5099286;28;20458;-73
2022/03/11 11:49:01;;;;;;;20.60;12.82;;;14.00;49.50;;;;;;5088618;28;20059;-73
2022/03/11 11:54:32;;;;;;;19.38;12.77;;;14.00;49.30;;;;;;5111096;27;20347;-73
2022/03/11 11:57:00;;;;;;;18.20;12.63;;;13.90;48.70;;;;;;5108052;28;20474;-72
2022/03/11 11:59:29;;;;;;;18.63;13.35;;;13.80;49.60;;;;;;5102272;28;20543;-73
2022/03/11 12:01:57;;;;;;;23.00;13.57;;;13.90;49.00;;;;;;5092529;28;20020;-73
2022/03/11 12:04:39;;;;;;;21.33;13.27;;;14.00;49.40;;;;;;5111129;28;20489;-73
2022/03/11 12:07:09;;;;;;;22.83;13.98;;;14.10;49.50;;;;;;5106024;28;20029;-73
2022/03/11 12:17:55;;;;;;;20.42;12.68;;;14.30;49.30;;;;;;5070428;28;20762;-73
2022/03/11 12:20:33;;;;;;;23.73;14.38;;;13.60;48.90;;;;;;5068970;28;20025;-73
2022/03/11 12:23:11;;;;;;;23.08;13.57;;;13.80;49.80;;;;;;5068907;28;20024;-73
2022/03/11 12:25:41;;;;;;;21.77;13.77;;;13.70;49.70;;;;;;5067604;28;20102;-73
2022/03/11 12:28:09;;;;;;;21.17;14.27;;;13.90;50.10;;;;;;5052373;28;20499;-73
2022/03/11 12:30:39;;;;;;;20.60;13.10;;;14.00;49.30;;;;;;5067499;28;20441;-73
2022/03/11 12:33:08;;;;;;;20.38;12.90;;;13.80;49.00;;;;;;5070379;28;20475;-73
2022/03/11 12:35:34;;;;;;;20.85;13.77;;;13.80;50.10;;;;;;5067199;28;20029;-74
2022/03/11 12:38:01;;;;;;;21.08;13.18;;;13.60;49.70;;;;;;5064233;28;20026;-73
2022/03/11 12:40:28;;;;;;;21.17;14.20;;;13.70;50.30;;;;;;5049057;28;20108;-74
2022/03/11 12:42:59;;;;;;;24.10;14.13;;;14.00;49.80;;;;;;5052629;28;20009;-73
2022/03/11 12:45:34;;;;;;;25.08;14.73;;;14.30;50.70;;;;;;5066934;28;20108;-74
2022/03/11 12:48:00;;;;;;;25.15;14.13;;;14.60;48.70;;;;;;5060049;28;20032;-74
2022/03/11 12:50:26;;;;;;;21.02;14.13;;;14.20;48.50;;;;;;5069936;28;20021;-73
2022/03/11 12:52:55;;;;;;;24.52;13.88;;;13.90;49.40;;;;;;5068451;28;20041;-74
2022/03/11 12:55:25;;;;;;;18.90;12.98;;;14.10;50.20;;;;;;5068415;28;20024;-74